Time;durP1;ratioP1;P1;durP2;ratioP2;P2;SDS_P1;SDS_P2;PMS_P1;PMS_P2;Temp;Humidity;BMP_temperature;BMP_pressure;BME280_temperature;BME280_humidity;BME280_pressure;Samples;Min_cycle;Max_cycle;Signal;HPM_P1;HPM_P2
2022/08/17 00:08:59;;;;;;;;;;;;;;;24.88;51.31;99696.34;20461462;28;97932;-73
2022/08/17 00:19:01;;;;;;;;;;;;;;;24.96;51.07;99706.13;20475750;28;98141;-73
2022/08/17 00:29:01;;;;;;;;;;;;;;;25.01;50.83;99696.72;20469578;28;99360;-73
2022/08/17 00:39:02;;;;;;;;;;;;;;;25.02;50.93;99693.06;20468680;28;97558;-74
2022/08/17 00:49:03;;;;;;;;;;;;;;;25.05;50.81;99687.44;20472580;28;97635;-73
2022/08/17 00:59:05;;;;;;;;;;;;;;;25.02;50.90;99692.25;20475765;27;98848;-73
2022/08/17 01:09:07;;;;;;;;;;;;;;;24.47;52.35;99715.47;20474332;28;100777;-73
2022/08/17 01:19:16;;;;;;;;;;;;;;;24.41;52.60;99709.00;20483723;28;98417;-75
2022/08/17 01:29:18;;;;;;;;;;;;;;;24.07;53.29;99709.78;20468388;28;98708;-74
2022/08/17 01:39:27;;;;;;;;;;;;;;;23.97;53.36;99720.44;20469679;28;106261;-73
2022/08/17 01:49:27;;;;;;;;;;;;;;;24.03;53.35;99724.28;20463358;28;98688;-76
2022/08/17 01:59:27;;;;;;;;;;;;;;;24.11;53.14;99718.25;20480600;28;99069;-76
2022/08/17 02:09:28;;;;;;;;;;;;;;;24.17;52.85;99716.78;20483088;28;98586;-76
2022/08/17 02:19:30;;;;;;;;;;;;;;;24.10;53.14;99716.56;20470671;28;99058;-73
2022/08/17 02:29:30;;;;;;;;;;;;;;;23.91;53.68;99715.75;20471503;28;99222;-74
2022/08/17 02:39:30;;;;;;;;;;;;;;;23.78;53.96;99712.66;20473920;28;98375;-73
2022/08/17 02:49:31;;;;;;;;;;;;;;;23.63;54.65;99709.69;20479229;28;98313;-73
2022/08/17 02:59:31;;;;;;;;;;;;;;;23.75;54.38;99719.06;20478209;28;98557;-74
2022/08/17 03:09:31;;;;;;;;;;;;;;;23.81;54.33;99715.00;20474587;28;100489;-74
2022/08/17 03:19:32;;;;;;;;;;;;;;;23.63;54.99;99712.34;20480038;28;101570;-74
2022/08/17 03:29:32;;;;;;;;;;;;;;;23.55;54.89;99734.25;20490109;28;97975;-74
2022/08/17 03:39:33;;;;;;;;;;;;;;;23.29;55.35;99742.91;20471110;28;98430;-73
2022/08/17 03:59:53;;;;;;;;;;;;;;;23.50;54.59;99752.38;20472129;28;98350;-74
2022/08/17 04:09:54;;;;;;;;;;;;;;;23.55;54.18;99752.75;20479429;28;97605;-74
2022/08/17 04:19:55;;;;;;;;;;;;;;;23.31;55.14;99759.44;20491986;28;97805;-75
2022/08/17 04:29:55;;;;;;;;;;;;;;;23.33;55.15;99765.41;20487682;27;97464;-74
2022/08/17 04:50:15;;;;;;;;;;;;;;;23.21;54.61;99777.16;20468673;28;98853;-78
2022/08/17 05:00:15;;;;;;;;;;;;;;;23.29;54.47;99786.97;20470553;28;98845;-75
2022/08/17 05:10:26;;;;;;;;;;;;;;;22.93;54.39;99798.22;20486182;28;97853;-74
2022/08/17 05:20:27;;;;;;;;;;;;;;;23.15;54.41;99791.72;20472865;28;101341;-74
2022/08/17 05:30:27;;;;;;;;;;;;;;;23.25;54.25;99798.81;20479112;28;99167;-74
2022/08/17 05:40:27;;;;;;;;;;;;;;;23.34;53.55;99792.66;20494923;28;98401;-75
2022/08/17 05:50:32;;;;;;;;;;;;;;;23.58;53.15;99793.91;20495712;28;97914;-75
2022/08/17 06:00:35;;;;;;;;;;;;;;;23.78;53.01;99811.28;20490510;28;98500;-75
2022/08/17 06:10:35;;;;;;;;;;;;;;;23.92;52.25;99812.59;20494787;28;99149;-75
2022/08/17 06:20:46;;;;;;;;;;;;;;;24.06;51.78;99811.25;20488269;28;97181;-76
2022/08/17 06:30:48;;;;;;;;;;;;;;;24.19;50.63;99810.84;20497871;28;98058;-74
2022/08/17 06:41:00;;;;;;;;;;;;;;;24.32;50.57;99814.94;20491110;28;97782;-74
2022/08/17 06:51:13;;;;;;;;;;;;;;;24.42;49.30;99807.72;20495074;28;98150;-75
2022/08/17 07:01:16;;;;;;;;;;;;;;;24.57;49.14;99813.28;20477529;28;98989;-74
2022/08/17 07:11:31;;;;;;;;;;;;;;;24.68;48.41;99810.44;20484053;28;99056;-72
2022/08/17 07:21:31;;;;;;;;;;;;;;;24.81;48.18;99811.84;20482161;28;98057;-72
2022/08/17 07:31:32;;;;;;;;;;;;;;;24.94;48.11;99814.88;20484903;28;98007;-72
2022/08/17 07:41:38;;;;;;;;;;;;;;;25.07;48.00;99815.28;20476994;28;98362;-73
2022/08/17 07:51:41;;;;;;;;;;;;;;;25.18;47.71;99811.53;20481406;28;97818;-74
2022/08/17 08:01:44;;;;;;;;;;;;;;;25.29;47.34;99812.22;20456738;28;98439;-74
2022/08/17 08:11:45;;;;;;;;;;;;;;;25.41;47.52;99816.25;20427173;28;100487;-74
2022/08/17 08:21:49;;;;;;;;;;;;;;;25.53;47.45;99811.50;20422124;27;98610;-74
2022/08/17 08:31:49;;;;;;;;;;;;;;;25.65;46.54;99812.84;20457480;27;98041;-74
2022/08/17 08:41:56;;;;;;;;;;;;;;;25.78;46.72;99811.53;20473099;28;98089;-75
2022/08/17 08:51:58;;;;;;;;;;;;;;;25.91;46.32;99813.72;20484045;28;98402;-77
2022/08/17 09:01:58;;;;;;;;;;;;;;;26.01;45.93;99793.16;20460339;28;98498;-76
2022/08/17 09:12:00;;;;;;;;;;;;;;;26.14;44.54;99798.84;20455105;28;98369;-77
2022/08/17 09:22:06;;;;;;;;;;;;;;;26.24;44.70;99798.66;20476500;28;98465;-77
2022/08/17 09:32:27;;;;;;;;;;;;;;;26.35;44.06;99802.81;20494592;28;98703;-77
2022/08/17 09:42:46;;;;;;;;;;;;;;;26.48;43.71;99789.84;20494383;28;98729;-76
2022/08/17 09:52:49;;;;;;;;;;;;;;;26.50;43.26;99779.91;20493857;28;97315;-76
2022/08/17 10:02:59;;;;;;;;;;;;;;;26.58;43.21;99768.41;20501936;28;97703;-76
2022/08/17 10:13:14;;;;;;;;;;;;;;;26.65;43.24;99773.91;20480291;28;98673;-75
2022/08/17 10:33:58;;;;;;;;;;;;;;;26.75;42.94;99755.97;20487486;28;98111;-76
2022/08/17 10:44:07;;;;;;;;;;;;;;;26.83;41.75;99760.41;20481205;28;99413;-76
2022/08/17 10:54:23;;;;;;;;;;;;;;;26.90;41.39;99760.56;20501047;28;98303;-76
2022/08/17 11:04:31;;;;;;;;;;;;;;;27.00;40.81;99754.03;20472562;28;99044;-75
2022/08/17 11:14:34;;;;;;;;;;;;;;;27.09;40.45;99746.88;20472154;28;97692;-76
2022/08/17 11:24:39;;;;;;;;;;;;;;;27.14;39.80;99741.84;20480064;28;99483;-74
2022/08/17 11:34:42;;;;;;;;;;;;;;;27.24;39.61;99735.50;20478264;28;99534;-75
2022/08/17 11:44:54;;;;;;;;;;;;;;;27.30;38.65;99721.50;20476649;27;98239;-75
2022/08/17 11:54:58;;;;;;;;;;;;;;;27.35;39.36;99723.63;20459385;28;98068;-76
2022/08/17 12:05:24;;;;;;;;;;;;;;;27.40;39.32;99718.63;20478025;27;98249;-74
2022/08/17 12:15:27;;;;;;;;;;;;;;;27.43;39.50;99700.50;20483984;28;101644;-76
2022/08/17 12:25:37;;;;;;;;;;;;;;;27.47;39.17;99693.81;20486890;28;99029;-75
2022/08/17 12:35:45;;;;;;;;;;;;;;;27.52;39.01;99685.31;20479221;27;98345;-75
2022/08/17 12:45:53;;;;;;;;;;;;;;;27.59;38.59;99685.44;20473784;27;98678;-72
2022/08/17 12:55:53;;;;;;;;;;;;;;;27.64;38.43;99673.25;20489248;28;98722;-73
2022/08/17 13:05:55;;;;;;;;;;;;;;;27.73;37.96;99678.50;20469983;28;98627;-73
2022/08/17 13:16:00;;;;;;;;;;;;;;;27.78;37.79;99681.44;20471085;28;97927;-73
2022/08/17 13:26:13;;;;;;;;;;;;;;;27.86;39.99;99676.06;20449422;28;100831;-75
2022/08/17 13:36:24;;;;;;;;;;;;;;;27.93;40.05;99671.66;20466255;28;97430;-76
2022/08/17 13:46:30;;;;;;;;;;;;;;;28.02;38.84;99653.78;20487857;28;100514;-76
2022/08/17 13:56:36;;;;;;;;;;;;;;;28.09;38.60;99662.72;20509574;28;98763;-74
2022/08/17 14:06:48;;;;;;;;;;;;;;;28.16;38.53;99651.34;20497388;28;98223;-77
2022/08/17 14:16:49;;;;;;;;;;;;;;;28.21;38.01;99655.13;20497608;28;97832;-77
2022/08/17 14:26:51;;;;;;;;;;;;;;;28.26;37.77;99658.06;20506422;28;98170;-76
2022/08/17 14:36:52;;;;;;;;;;;;;;;28.34;37.67;99645.66;20497253;28;98235;-75
2022/08/17 14:46:52;;;;;;;;;;;;;;;28.39;37.76;99656.56;20482315;28;97582;-75
2022/08/17 14:56:52;;;;;;;;;;;;;;;28.41;37.38;99651.91;20491492;28;97765;-78
2022/08/17 15:06:53;;;;;;;;;;;;;;;28.44;37.22;99652.38;20484313;28;97844;-76
2022/08/17 15:16:53;;;;;;;;;;;;;;;28.48;37.16;99651.97;20495282;28;97724;-75
2022/08/17 15:26:55;;;;;;;;;;;;;;;28.87;37.24;99651.69;20477707;27;98456;-73
2022/08/17 15:36:55;;;;;;;;;;;;;;;29.19;35.27;99656.72;20473382;28;101115;-74
2022/08/17 15:46:55;;;;;;;;;;;;;;;29.19;35.79;99651.41;20476690;28;101463;-76
2022/08/17 15:56:57;;;;;;;;;;;;;;;29.17;35.22;99656.09;20489570;28;98388;-77
2022/08/17 16:06:58;;;;;;;;;;;;;;;29.17;35.18;99656.09;20474360;28;98576;-77
2022/08/17 16:16:58;;;;;;;;;;;;;;;29.13;35.05;99658.31;20465787;28;98044;-77
2022/08/17 16:26:58;;;;;;;;;;;;;;;29.11;35.08;99656.84;20486425;28;98037;-78
2022/08/17 16:36:59;;;;;;;;;;;;;;;29.87;34.17;99641.13;20442624;28;98892;-75
2022/08/17 16:47:00;;;;;;;;;;;;;;;29.42;35.13;99645.91;20436004;28;98484;-74
2022/08/17 16:57:02;;;;;;;;;;;;;;;29.20;36.09;99651.19;20446189;27;99206;-74
2022/08/17 17:07:10;;;;;;;;;;;;;;;29.08;36.62;99658.06;20450024;27;98301;-73
2022/08/17 17:17:11;;;;;;;;;;;;;;;29.06;37.06;99663.56;20435403;27;98484;-72
2022/08/17 17:27:15;;;;;;;;;;;;;;;29.07;37.45;99662.53;20448447;28;98421;-73
2022/08/17 17:37:19;;;;;;;;;;;;;;;29.10;38.37;99679.19;20475603;27;98309;-73
2022/08/17 17:47:19;;;;;;;;;;;;;;;29.12;38.68;99691.31;20464347;27;97961;-73
2022/08/17 17:57:20;;;;;;;;;;;;;;;29.16;38.74;99697.09;20461149;28;101359;-72
2022/08/17 18:07:36;;;;;;;;;;;;;;;29.14;37.81;99693.78;20450924;28;98049;-75
2022/08/17 18:17:37;;;;;;;;;;;;;;;29.12;37.53;99703.81;20473731;27;97930;-73
2022/08/17 18:27:38;;;;;;;;;;;;;;;29.08;37.73;99714.03;20477230;28;98611;-73
2022/08/17 18:37:38;;;;;;;;;;;;;;;29.04;36.05;99718.91;20462597;28;98613;-73
2022/08/17 18:47:52;;;;;;;;;;;;;;;29.00;34.70;99730.13;20437534;28;98181;-73
2022/08/17 18:57:55;;;;;;;;;;;;;;;28.95;34.24;99729.84;20415193;28;98868;-80
2022/08/17 19:08:16;;;;;;;;;;;;;;;28.87;35.00;99731.63;20475308;28;97930;-78
2022/08/17 19:18:22;;;;;;;;;;;;;;;28.80;35.43;99735.22;20473583;28;97849;-75
2022/08/17 19:28:28;;;;;;;;;;;;;;;28.70;33.63;99754.16;20444964;28;101234;-74
2022/08/17 19:38:37;;;;;;;;;;;;;;;28.64;35.13;99749.50;20454495;28;98754;-73
2022/08/17 19:48:38;;;;;;;;;;;;;;;28.53;34.72;99756.13;20458883;28;101482;-70
2022/08/17 19:58:48;;;;;;;;;;;;;;;28.46;35.19;99760.53;20469756;28;101370;-70
2022/08/17 20:08:48;;;;;;;;;;;;;;;28.39;35.30;99757.75;20463927;28;100463;-70
2022/08/17 20:18:54;;;;;;;;;;;;;;;28.27;35.15;99752.88;20448058;28;98708;-70
2022/08/17 20:29:12;;;;;;;;;;;;;;;28.19;35.37;99758.28;20426312;27;103162;-70
2022/08/17 20:39:28;;;;;;;;;;;;;;;28.14;35.65;99749.19;20408659;28;98578;-71
2022/08/17 20:49:49;;;;;;;;;;;;;;;28.03;36.07;99734.47;20411060;28;101552;-70
2022/08/17 20:59:49;;;;;;;;;;;;;;;27.91;36.57;99740.19;20417447;28;99879;-69
2022/08/17 21:09:50;;;;;;;;;;;;;;;27.85;36.89;99740.91;20419177;28;100432;-70
2022/08/17 21:20:09;;;;;;;;;;;;;;;27.78;36.93;99740.81;20420102;27;100793;-71
2022/08/17 21:30:12;;;;;;;;;;;;;;;27.70;37.44;99759.50;20432275;28;97997;-72
2022/08/17 21:40:16;;;;;;;;;;;;;;;27.66;37.88;99760.00;20439202;28;101140;-71
2022/08/17 21:50:23;;;;;;;;;;;;;;;27.59;37.97;99760.72;20439916;28;98550;-70
2022/08/17 22:00:28;;;;;;;;;;;;;;;27.54;38.23;99765.75;20435410;28;98342;-70
2022/08/17 22:10:31;;;;;;;;;;;;;;;27.47;38.49;99775.44;20430800;28;99050;-70
2022/08/17 22:20:32;;;;;;;;;;;;;;;27.36;38.52;99792.56;20459087;27;101310;-70
2022/08/17 22:30:40;;;;;;;;;;;;;;;27.31;38.78;99798.41;20451509;28;98786;-70
2022/08/17 22:40:40;;;;;;;;;;;;;;;27.30;38.66;99815.34;20446179;28;98117;-70
2022/08/17 22:50:40;;;;;;;;;;;;;;;27.30;38.98;99833.97;20447443;28;99130;-70
2022/08/17 23:00:43;;;;;;;;;;;;;;;27.27;39.06;99842.28;20438669;28;100857;-70
2022/08/17 23:10:45;;;;;;;;;;;;;;;27.16;39.52;99853.31;20449440;28;98344;-69
2022/08/17 23:20:46;;;;;;;;;;;;;;;27.09;39.80;99865.63;20437248;28;100878;-70
2022/08/17 23:30:53;;;;;;;;;;;;;;;26.95;40.09;99861.81;20447977;28;107229;-70
2022/08/17 23:40:53;;;;;;;;;;;;;;;26.94;40.61;99844.22;20433043;28;101210;-70
2022/08/17 23:50:55;;;;;;;;;;;;;;;26.83;40.71;99846.25;20434564;28;98606;-70
